createdAt,value
2022-12-29T04:34:29.639Z,85242.88
2022-12-29T04:36:57.302Z,85242.88
2022-12-29T04:39:24.992Z,85501.56
2022-12-29T04:41:53.934Z,85242.88
2022-12-29T04:44:23.490Z,84984.19
2022-12-29T04:47:02.966Z,85501.56
2022-12-29T04:49:56.233Z,85501.56
2022-12-29T04:52:38.007Z,85501.56
2022-12-29T04:55:07.214Z,84984.19
2022-12-29T04:57:37.918Z,83949.66
2022-12-29T05:00:12.124Z,83432.50
2022-12-29T05:02:44.753Z,83432.50
2022-12-29T05:05:12.901Z,83949.66
2022-12-29T05:07:43.259Z,83691.06
2022-12-29T05:10:11.255Z,84208.25
2022-12-29T05:12:38.918Z,83949.66
2022-12-29T05:15:09.341Z,83691.06
2022-12-29T05:17:37.173Z,83691.06
2022-12-29T05:20:06.405Z,83432.50
2022-12-29T05:22:34.747Z,83432.50
2022-12-29T05:25:02.595Z,83432.50
2022-12-29T05:27:33.074Z,83691.06
2022-12-29T05:30:14.490Z,83691.06
2022-12-29T05:32:44.366Z,83432.50
2022-12-29T05:35:11.667Z,83432.50
2022-12-29T05:37:41.839Z,83432.50
2022-12-29T05:40:11.204Z,83691.06
2022-12-29T05:42:38.471Z,83949.66
2022-12-29T05:45:24.255Z,84208.25
2022-12-29T05:47:56.490Z,84208.25
2022-12-29T05:50:47.616Z,84466.88
2022-12-29T05:53:16.628Z,84466.88
2022-12-29T05:55:49.966Z,84208.25
2022-12-29T05:58:20.434Z,83691.06
2022-12-29T06:00:48.277Z,83691.06
2022-12-29T06:03:17.068Z,83691.06
2022-12-29T06:05:46.973Z,83432.50
2022-12-29T06:08:18.217Z,83432.50
2022-12-29T06:10:45.865Z,83432.50
2022-12-29T06:13:13.102Z,83173.97
2022-12-29T06:15:46.233Z,82915.44
2022-12-29T06:18:19.421Z,82398.44
2022-12-29T06:20:48.212Z,82398.44
2022-12-29T06:23:19.404Z,82398.44
2022-12-29T06:25:49.808Z,82398.44
2022-12-29T06:28:18.135Z,82139.97
2022-12-29T06:30:48.894Z,81881.53
2022-12-29T06:33:19.189Z,81623.09
2022-12-29T06:35:48.725Z,81106.28
2022-12-29T06:38:16.249Z,81106.28
2022-12-29T06:40:45.878Z,81106.28
2022-12-29T06:43:45.382Z,80847.91
2022-12-29T06:46:36.546Z,80589.56
2022-12-29T06:49:03.859Z,80589.56
2022-12-29T06:51:31.123Z,80589.56
2022-12-29T06:53:58.331Z,80589.56
2022-12-29T06:56:26.623Z,80589.56
2022-12-29T06:58:53.969Z,80072.94
2022-12-29T07:01:21.411Z,80072.94
2022-12-29T07:03:48.810Z,79814.63
2022-12-29T07:06:18.246Z,79556.34
2022-12-29T07:08:47.800Z,79556.34
2022-12-29T07:11:16.896Z,79556.34
2022-12-29T07:13:47.691Z,79298.09
2022-12-29T07:16:17.110Z,79039.88
2022-12-29T07:18:44.674Z,78523.44
2022-12-29T07:21:12.790Z,78523.44
2022-12-29T07:23:40.675Z,78265.28
2022-12-29T07:26:14.791Z,78007.13
2022-12-29T07:28:44.446Z,78007.13
2022-12-29T07:31:23.411Z,77490.88
2022-12-29T07:33:50.796Z,77490.88
2022-12-29T07:36:21.261Z,77232.75
2022-12-29T07:38:49.546Z,76974.69
2022-12-29T07:41:19.189Z,76458.59
2022-12-29T07:43:49.891Z,76200.56
2022-12-29T07:46:56.232Z,76200.56
2022-12-29T07:49:24.553Z,75426.59
2022-12-29T07:51:54.063Z,72590.28
2022-12-29T07:54:21.386Z,68726.38
2022-12-29T07:56:48.647Z,63838.31
2022-12-29T07:59:18.624Z,59214.00
2022-12-29T08:01:46.050Z,57930.59
2022-12-29T08:04:13.423Z,59470.75
2022-12-29T11:27:15.509Z,76200.56
2022-12-29T11:29:44.457Z,77490.88
2022-12-29T11:32:24.160Z,79039.88
2022-12-29T11:34:55.434Z,80589.56
2022-12-29T11:37:42.066Z,82398.44
2022-12-29T11:40:19.587Z,82915.44
2022-12-29T11:42:52.967Z,83173.97
2022-12-29T11:45:26.474Z,83949.66
2022-12-29T11:48:17.306Z,84466.88
2022-12-29T11:50:55.568Z,84725.53
2022-12-29T11:53:33.355Z,84984.19
2022-12-29T11:56:05.898Z,84984.19
2022-12-29T11:58:38.693Z,85501.56
2022-12-29T12:01:24.240Z,86277.78
2022-12-29T12:04:03.651Z,86795.38
2022-12-29T12:06:35.438Z,87054.19
2022-12-29T12:09:15.542Z,86536.56
2022-12-29T12:11:46.385Z,86019.03
2022-12-29T12:14:38.246Z,85760.28
2022-12-29T12:17:38.611Z,86019.03
2022-12-29T12:20:12.393Z,85760.28
2022-12-29T12:22:46.267Z,85242.88
2022-12-29T12:25:24.844Z,84984.19
2022-12-29T12:28:19.235Z,84466.88
2022-12-29T12:30:54.863Z,84208.25
2022-12-29T12:33:39.946Z,84208.25
2022-12-29T12:36:27.274Z,83432.50
2022-12-29T12:39:13.793Z,83432.50
2022-12-29T12:41:50.218Z,83432.50
2022-12-29T12:44:21.413Z,83432.50
2022-12-29T12:47:43.365Z,82915.44
2022-12-29T12:50:29.135Z,83173.97
2022-12-29T12:53:05.573Z,83173.97
2022-12-29T12:56:02.075Z,83173.97
2022-12-29T12:59:15.492Z,82398.44
2022-12-29T13:01:54.233Z,82656.94
2022-12-29T13:04:35.510Z,82656.94
2022-12-29T13:07:13.370Z,82656.94
2022-12-29T13:09:44.401Z,82398.44
2022-12-29T13:12:48.102Z,82656.94
2022-12-29T13:15:15.396Z,82915.44
2022-12-29T13:17:58.005Z,82915.44
2022-12-29T13:21:06.054Z,83691.06
2022-12-29T13:23:38.692Z,84208.25
2022-12-29T13:26:23.308Z,83949.66
2022-12-29T13:29:00.591Z,84208.25
2022-12-29T13:32:05.760Z,84466.88
2022-12-29T13:34:52.372Z,84984.19
2022-12-29T13:37:27.314Z,85242.88
2022-12-29T13:40:01.674Z,85501.56
2022-12-29T13:42:30.833Z,85760.28
2022-12-29T13:45:13.151Z,86277.78
2022-12-29T13:47:48.011Z,86795.38
2022-12-29T13:50:24.341Z,86795.38
2022-12-29T13:53:16.292Z,86795.38
2022-12-29T13:56:05.424Z,87054.19
2022-12-29T13:58:44.033Z,87313.03
2022-12-29T14:01:20.117Z,87313.03
2022-12-29T14:03:51.453Z,87313.03
2022-12-29T14:06:33.709Z,87313.03
2022-12-29T14:09:06.863Z,87313.03
2022-12-29T14:11:37.870Z,87054.19
2022-12-29T14:14:38.914Z,87054.19
2022-12-29T14:17:15.317Z,87313.03
2022-12-29T14:19:47.914Z,87313.03
2022-12-29T14:22:32.367Z,87571.88
2022-12-29T14:25:01.157Z,87571.88
2022-12-29T14:27:28.466Z,87571.88
2022-12-29T14:29:55.842Z,87313.03
2022-12-29T14:32:26.216Z,87313.03
2022-12-29T14:34:56.056Z,87571.88
2022-12-29T14:37:34.296Z,87571.88
2022-12-29T14:40:24.897Z,87571.88
2022-12-29T14:42:55.241Z,87830.75
2022-12-29T14:45:30.042Z,87830.75
2022-12-29T14:48:01.799Z,87571.88
2022-12-29T14:50:43.594Z,87571.88
2022-12-29T14:53:50.331Z,87313.03
2022-12-29T14:56:27.111Z,87571.88
2022-12-29T14:59:00.226Z,87830.75
2022-12-29T15:01:52.357Z,88089.66
2022-12-29T15:04:26.240Z,88089.66
2022-12-29T15:06:54.311Z,88348.56
2022-12-29T15:09:40.090Z,88607.50
2022-12-29T15:12:24.372Z,88607.50
2022-12-29T15:14:51.883Z,89125.41
2022-12-29T15:17:34.071Z,89125.41
2022-12-29T15:20:17.966Z,89384.41
2022-12-29T15:22:48.479Z,89902.44
2022-12-29T15:25:18.108Z,89643.41
2022-12-29T15:27:54.851Z,89643.41
2022-12-29T15:30:26.674Z,89902.44
2022-12-29T15:32:56.877Z,90938.78
2022-12-29T15:35:41.813Z,91716.22
2022-12-29T15:38:17.834Z,92234.59
2022-12-29T15:40:46.373Z,92493.81
2022-12-29T15:43:46.688Z,92493.81
2022-12-29T15:46:21.926Z,93012.34
2022-12-29T15:48:52.963Z,93271.63
2022-12-29T15:51:35.696Z,93530.91
2022-12-29T15:54:04.081Z,93790.25
2022-12-29T15:56:42.175Z,93790.25
2022-12-29T15:59:49.144Z,93790.25
2022-12-29T16:02:19.645Z,93790.25
2022-12-29T16:05:16.012Z,93530.91
2022-12-29T16:07:56.536Z,93790.25
2022-12-29T16:10:31.339Z,93530.91
2022-12-29T16:13:21.157Z,93271.63
2022-12-29T16:15:57.064Z,93012.34
2022-12-29T16:18:30.208Z,93012.34
2022-12-29T16:20:58.366Z,92753.06
2022-12-29T16:23:28.102Z,92753.06
2022-12-29T16:25:58.536Z,92753.06
2022-12-29T16:28:40.099Z,92753.06
2022-12-29T16:31:17.531Z,92493.81
2022-12-29T16:34:24.469Z,92493.81
2022-12-29T16:37:07.982Z,92234.59
2022-12-29T16:39:49.628Z,92234.59
2022-12-29T16:42:59.351Z,91457.03
2022-12-29T16:45:47.986Z,91197.91
2022-12-29T16:48:15.554Z,91716.22
2022-12-29T16:50:48.305Z,91457.03
2022-12-29T16:53:24.787Z,91457.03
2022-12-29T16:56:01.066Z,91716.22
2022-12-29T16:58:32.489Z,91457.03
2022-12-29T17:01:05.831Z,91457.03
2022-12-29T17:03:50.958Z,91457.03
2022-12-29T17:06:24.491Z,91197.91
2022-12-29T17:08:54.826Z,90161.50
2022-12-29T17:11:57.744Z,89902.44
2022-12-29T17:14:36.394Z,90161.50
2022-12-29T17:17:05.681Z,89902.44
2022-12-29T17:19:42.351Z,89902.44
2022-12-29T17:22:26.176Z,89902.44
2022-12-29T17:24:58.682Z,89902.44
2022-12-29T17:27:38.777Z,89643.41
2022-12-29T17:30:19.514Z,89643.41
2022-12-29T17:32:57.343Z,89643.41
2022-12-29T17:35:28.168Z,89384.41
2022-12-29T17:37:57.626Z,89384.41
2022-12-29T17:40:30.159Z,89125.41
2022-12-29T17:42:59.195Z,88866.44
2022-12-29T17:45:29.053Z,88607.50
2022-12-29T17:48:01.781Z,88348.56
2022-12-29T17:50:31.643Z,88348.56
2022-12-29T17:53:03.126Z,88348.56
2022-12-29T17:55:38.127Z,88089.66
2022-12-29T17:58:32.888Z,88089.66
2022-12-29T18:01:15.159Z,88089.66
2022-12-29T18:03:42.756Z,88089.66
2022-12-29T18:06:17.794Z,88089.66
2022-12-29T18:08:47.996Z,88348.56
2022-12-29T18:11:29.958Z,88348.56
2022-12-29T18:14:00.158Z,88607.50
2022-12-29T18:16:28.468Z,88607.50
2022-12-29T18:18:55.979Z,88607.50
2022-12-29T18:21:25.748Z,88866.44
2022-12-29T18:23:57.789Z,88866.44
2022-12-29T18:26:28.958Z,89384.41
2022-12-29T18:29:02.059Z,89384.41
2022-12-29T18:31:32.051Z,89643.41
2022-12-29T18:34:01.826Z,89902.44
2022-12-29T18:36:34.386Z,90161.50
2022-12-29T18:39:04.015Z,90420.56
2022-12-29T18:41:34.478Z,90938.78
2022-12-29T18:44:04.238Z,91197.91
2022-12-29T18:46:31.441Z,91457.03
2022-12-29T18:48:59.645Z,91975.41
2022-12-29T18:51:32.980Z,91975.41
2022-12-29T18:54:33.717Z,91975.41
2022-12-29T18:57:03.927Z,92753.06
2022-12-29T18:59:35.278Z,92753.06
2022-12-29T19:02:02.804Z,93271.63
2022-12-29T19:04:30.199Z,93271.63
2022-12-29T19:07:01.934Z,93530.91
2022-12-29T19:09:29.151Z,93790.25
2022-12-29T19:11:59.453Z,94049.59
2022-12-29T19:14:28.666Z,94308.94
2022-12-29T19:16:56.073Z,94308.94
2022-12-29T19:19:28.298Z,94308.94
2022-12-29T19:21:58.169Z,94568.31
2022-12-29T19:24:28.183Z,94568.31
2022-12-29T19:27:00.842Z,94568.31
2022-12-29T19:29:31.350Z,94827.72
2022-12-29T19:32:02.004Z,94827.72
2022-12-29T19:34:29.443Z,94827.72
2022-12-29T19:36:58.759Z,95087.13
2022-12-29T19:39:26.913Z,95346.59
2022-12-29T19:42:05.504Z,95606.03
2022-12-29T19:44:35.268Z,95606.03
2022-12-29T19:47:03.956Z,95606.03
2022-12-29T19:49:31.963Z,95606.03
2022-12-29T19:51:59.626Z,95865.50
2022-12-29T19:54:26.786Z,95865.50
2022-12-29T19:56:54.662Z,95606.03
2022-12-29T19:59:21.974Z,95865.50
2022-12-29T20:01:54.275Z,95606.03
2022-12-29T20:04:21.967Z,95606.03
2022-12-29T20:06:55.372Z,95865.50
2022-12-29T20:09:26.144Z,95865.50
2022-12-29T20:11:56.663Z,95865.50
2022-12-29T20:14:24.072Z,95865.50
2022-12-29T20:17:10.320Z,96125.00
2022-12-29T20:19:41.727Z,96125.00
2022-12-29T20:22:11.582Z,96125.00
2022-12-29T20:24:48.284Z,95865.50
2022-12-29T20:27:32.428Z,95865.50
2022-12-29T20:30:02.499Z,95865.50
2022-12-29T20:32:31.643Z,95865.50
2022-12-29T20:35:01.972Z,95606.03
2022-12-29T20:37:29.242Z,96125.00
2022-12-29T20:39:56.807Z,96125.00
2022-12-29T20:42:24.734Z,95865.50
2022-12-29T20:44:52.307Z,96384.53
2022-12-29T20:47:19.723Z,96384.53
2022-12-29T20:49:48.094Z,96644.06
2022-12-29T20:52:15.516Z,96384.53
2022-12-29T20:54:43.905Z,96384.53
2022-12-29T20:57:11.350Z,96384.53
2022-12-29T20:59:40.410Z,96384.53
2022-12-29T21:02:21.052Z,96125.00
2022-12-29T21:05:22.636Z,96384.53
2022-12-29T21:07:38.360Z,96125.00
2022-12-29T21:10:06.159Z,96384.53
2022-12-29T21:12:33.508Z,96384.53
2022-12-29T21:15:03.305Z,96644.06
2022-12-29T21:17:30.530Z,96384.53
2022-12-29T21:20:00.287Z,96644.06
2022-12-29T21:22:27.461Z,96644.06
2022-12-29T21:25:00.149Z,96644.06
2022-12-29T21:27:31.378Z,96384.53
2022-12-29T21:30:01.600Z,96125.00
2022-12-29T21:32:32.910Z,96125.00
2022-12-29T21:35:00.131Z,96125.00
2022-12-29T21:37:27.348Z,95865.50
2022-12-29T21:39:54.947Z,95865.50
2022-12-29T21:42:24.312Z,96125.00
2022-12-29T21:45:12.900Z,96125.00
2022-12-29T21:48:00.979Z,96125.00
2022-12-29T21:50:28.321Z,96125.00
2022-12-29T21:52:55.718Z,95865.50
2022-12-29T21:55:22.918Z,96125.00
2022-12-29T21:58:08.877Z,96125.00
2022-12-29T22:00:54.755Z,95865.50
2022-12-29T22:03:40.865Z,95865.50
2022-12-29T22:06:33.794Z,95865.50
2022-12-29T22:09:21.086Z,96125.00
2022-12-29T22:12:06.857Z,96125.00
2022-12-29T22:14:34.210Z,96125.00
2022-12-29T22:17:01.493Z,96125.00
2022-12-29T22:19:28.664Z,96125.00
2022-12-29T22:21:56.306Z,96125.00
2022-12-29T22:24:25.410Z,96125.00
2022-12-29T22:26:52.637Z,96125.00
2022-12-29T22:29:19.946Z,96125.00
2022-12-29T22:31:53.379Z,96384.53
2022-12-29T22:34:23.403Z,96384.53
2022-12-29T22:36:50.761Z,96384.53
2022-12-29T22:39:18.232Z,96384.53
2022-12-29T22:41:45.371Z,96125.00
2022-12-29T22:44:14.671Z,96125.00
2022-12-29T22:46:42.062Z,96384.53
2022-12-29T22:49:11.554Z,96384.53
2022-12-29T22:51:38.877Z,96125.00
2022-12-29T22:54:06.326Z,96125.00
2022-12-29T22:56:34.831Z,95865.50
2022-12-29T22:59:02.280Z,95865.50
2022-12-29T23:01:29.966Z,96125.00
2022-12-29T23:04:11.233Z,96125.00
2022-12-29T23:06:44.557Z,96125.00
2022-12-29T23:09:22.921Z,96125.00
2022-12-29T23:11:50.617Z,96125.00
2022-12-29T23:14:20.078Z,95865.50
2022-12-29T23:16:49.660Z,95865.50
2022-12-29T23:19:19.084Z,96125.00
2022-12-29T23:21:48.450Z,95606.03
2022-12-29T23:24:18.241Z,95606.03
2022-12-29T23:26:47.430Z,95346.59
2022-12-29T23:29:18.661Z,95606.03
2022-12-29T23:31:47.390Z,95606.03
2022-12-29T23:34:16.474Z,95606.03
2022-12-29T23:36:43.854Z,95865.50
2022-12-29T23:39:18.720Z,95865.50
2022-12-29T23:41:45.879Z,95865.50
2022-12-29T23:44:13.273Z,95865.50
2022-12-29T23:46:41.211Z,95865.50
2022-12-29T23:49:09.799Z,95865.50
2022-12-29T23:51:39.431Z,95865.50
2022-12-29T23:54:09.273Z,96125.00
2022-12-29T23:56:41.398Z,96125.00
2022-12-29T23:59:11.379Z,96125.00
